Time;durP1;ratioP1;P1;durP2;ratioP2;P2;SDS_P1;SDS_P2;PMS_P1;PMS_P2;Temp;Humidity;BMP_temperature;BMP_pressure;BME280_temperature;BME280_humidity;BME280_pressure;Samples;Min_cycle;Max_cycle;Signal;HPM_P1;HPM_P2
2022/04/08 00:01:14;;;;;;;11.75;7.68;;;;;;;;;;5077696;28;20028;-58
2022/04/08 00:03:39;;;;;;;7.78;7.28;;;;;;;;;;5077601;28;20032;-57
2022/04/08 00:06:04;;;;;;;9.52;8.93;;;;;;;;;;5073164;28;20028;-58
2022/04/08 00:08:30;;;;;;;17.30;16.35;;;;;;;;;;5073391;28;20056;-59
2022/04/08 00:10:55;;;;;;;14.60;13.80;;;;;;;;;;5075680;28;20072;-58
2022/04/08 00:13:20;;;;;;;18.83;17.77;;;;;;;;;;5077001;28;20122;-59
2022/04/08 00:15:46;;;;;;;22.10;20.90;;;;;;;;;;5077790;28;20064;-58
2022/04/08 00:18:12;;;;;;;11.98;11.25;;;;;;;;;;5073745;28;20084;-58
2022/04/08 00:20:38;;;;;;;19.25;18.20;;;;;;;;;;5076771;28;20032;-58
2022/04/08 00:23:04;;;;;;;18.95;17.90;;;;;;;;;;5076297;28;20036;-57
2022/04/08 00:25:30;;;;;;;29.42;27.83;;;;;;;;;;5075475;28;20055;-58
2022/04/08 00:27:56;;;;;;;42.38;40.20;;;;;;;;;;5076640;28;20032;-57
2022/04/08 00:30:21;;;;;;;51.33;48.72;;;;;;;;;;5073846;28;20058;-50
2022/04/08 00:32:47;;;;;;;36.22;34.35;;;;;;;;;;5076121;28;20040;-50
2022/04/08 00:35:12;;;;;;;54.28;51.55;;;;;;;;;;5081215;28;20128;-50
2022/04/08 00:37:39;;;;;;;58.85;55.85;;;;;;;;;;5081344;28;20035;-46
2022/04/08 00:40:06;;;;;;;43.70;41.38;;;;;;;;;;5075834;28;20032;-47
2022/04/08 00:42:31;;;;;;;51.75;49.15;;;;;;;;;;5076267;28;20110;-47
2022/04/08 00:44:57;;;;;;;55.65;52.85;;;;;;;;;;5076470;28;20119;-48
2022/04/08 00:47:22;;;;;;;57.40;54.42;;;;;;;;;;5077421;28;20107;-48
2022/04/08 00:49:48;;;;;;;56.65;53.83;;;;;;;;;;5073770;28;20596;-49
2022/04/08 00:52:14;;;;;;;58.00;54.88;;;;;;;;;;5071761;28;20051;-47
2022/04/08 00:54:40;;;;;;;51.15;48.55;;;;;;;;;;5075861;28;20039;-49
2022/04/08 00:57:06;;;;;;;36.97;35.08;;;;;;;;;;5074452;28;20132;-53
2022/04/08 00:59:32;;;;;;;42.45;40.20;;;;;;;;;;5075399;28;20116;-47
2022/04/08 01:01:58;;;;;;;28.42;26.77;;;;;;;;;;5073582;28;20119;-49
2022/04/08 01:04:25;;;;;;;48.08;45.38;;;;;;;;;;5074648;28;20526;-49
2022/04/08 01:06:50;;;;;;;36.80;34.90;;;;;;;;;;5075543;28;20458;-59
2022/04/08 01:09:16;;;;;;;29.38;27.73;;;;;;;;;;5076178;28;20047;-59
2022/04/08 01:11:42;;;;;;;19.73;18.63;;;;;;;;;;5075594;28;20450;-59
2022/04/08 01:14:09;;;;;;;25.65;24.30;;;;;;;;;;5076879;28;20036;-59
2022/04/08 01:16:35;;;;;;;12.93;12.18;;;;;;;;;;5072041;28;20029;-58
2022/04/08 01:19:00;;;;;;;18.88;17.85;;;;;;;;;;5075594;28;20037;-49
2022/04/08 01:21:26;;;;;;;15.15;14.02;;;;;;;;;;5079517;28;20028;-47
2022/04/08 01:23:54;;;;;;;22.10;20.83;;;;;;;;;;5075480;28;20036;-48
2022/04/08 01:26:19;;;;;;;9.68;9.05;;;;;;;;;;5074894;28;20484;-59
2022/04/08 01:28:45;;;;;;;11.50;10.80;;;;;;;;;;5075107;28;20135;-58
2022/04/08 01:31:11;;;;;;;10.52;9.60;;;;;;;;;;5076383;28;20032;-58
2022/04/08 01:33:37;;;;;;;9.30;8.70;;;;;;;;;;5073660;28;20524;-58
2022/04/08 01:36:02;;;;;;;9.57;8.98;;;;;;;;;;5072719;28;20037;-58
2022/04/08 01:38:27;;;;;;;7.18;6.68;;;;;;;;;;5074358;28;20029;-57
2022/04/08 01:40:53;;;;;;;8.35;7.85;;;;;;;;;;5075713;28;20041;-49
2022/04/08 01:43:18;;;;;;;7.78;7.18;;;;;;;;;;5071447;28;20027;-50
2022/04/08 01:45:43;;;;;;;8.45;7.85;;;;;;;;;;5073379;28;20044;-46
2022/04/08 01:48:09;;;;;;;8.70;8.13;;;;;;;;;;5074585;28;20040;-46
2022/04/08 01:50:35;;;;;;;6.82;6.32;;;;;;;;;;5068885;28;20036;-48
2022/04/08 01:53:01;;;;;;;6.90;6.38;;;;;;;;;;5068592;28;20035;-47
2022/04/08 01:55:26;;;;;;;7.50;7.00;;;;;;;;;;5073626;28;20521;-48
2022/04/08 01:57:51;;;;;;;7.55;7.05;;;;;;;;;;5074572;28;20025;-59
2022/04/08 02:00:17;;;;;;;9.50;8.80;;;;;;;;;;5072306;28;20025;-49
2022/04/08 02:02:42;;;;;;;6.25;5.85;;;;;;;;;;5070493;28;20047;-51
2022/04/08 02:05:08;;;;;;;7.90;7.40;;;;;;;;;;5074441;28;20121;-48
2022/04/08 02:07:34;;;;;;;8.68;8.13;;;;;;;;;;5074978;28;20102;-48
2022/04/08 02:09:59;;;;;;;10.40;9.70;;;;;;;;;;5078644;28;20039;-48
2022/04/08 02:12:25;;;;;;;10.32;9.73;;;;;;;;;;5078418;28;20028;-49
2022/04/08 02:14:50;;;;;;;10.38;9.77;;;;;;;;;;5079831;28;20020;-48
2022/04/08 02:17:17;;;;;;;12.10;11.38;;;;;;;;;;5075337;28;20036;-49
2022/04/08 02:19:42;;;;;;;11.30;10.60;;;;;;;;;;5077586;28;20473;-48
2022/04/08 02:22:08;;;;;;;11.75;11.05;;;;;;;;;;5076219;28;20043;-49
2022/04/08 02:24:34;;;;;;;12.45;11.75;;;;;;;;;;5069430;28;20032;-47
2022/04/08 02:27:00;;;;;;;12.55;11.85;;;;;;;;;;5075375;28;20038;-48
2022/04/08 02:29:26;;;;;;;13.88;12.98;;;;;;;;;;5076486;28;20028;-51
2022/04/08 02:31:52;;;;;;;13.73;12.93;;;;;;;;;;5077404;28;20044;-49
2022/04/08 02:34:18;;;;;;;15.30;14.30;;;;;;;;;;5073780;28;20028;-51
2022/04/08 02:36:43;;;;;;;13.85;13.05;;;;;;;;;;5075305;28;20144;-50
2022/04/08 02:39:09;;;;;;;14.38;13.45;;;;;;;;;;5072395;28;20024;-47
2022/04/08 02:41:34;;;;;;;15.00;13.27;;;;;;;;;;5070940;28;20062;-49
2022/04/08 02:43:59;;;;;;;13.18;12.43;;;;;;;;;;5074028;28;20036;-46
2022/04/08 02:46:26;;;;;;;15.55;14.65;;;;;;;;;;5071868;28;20405;-50
2022/04/08 02:48:51;;;;;;;13.23;12.43;;;;;;;;;;5072483;28;20028;-50
2022/04/08 02:51:17;;;;;;;11.20;10.50;;;;;;;;;;5072871;28;20032;-50
2022/04/08 02:53:42;;;;;;;7.95;7.40;;;;;;;;;;5062722;28;20024;-48
2022/04/08 02:56:08;;;;;;;8.02;7.28;;;;;;;;;;5065441;28;20032;-47
2022/04/08 02:58:33;;;;;;;7.28;6.78;;;;;;;;;;5067198;28;20036;-48
2022/04/08 03:01:00;;;;;;;6.60;6.13;;;;;;;;;;5070659;28;20445;-48
2022/04/08 03:03:28;;;;;;;6.47;6.07;;;;;;;;;;5070093;28;20662;-50
2022/04/08 03:05:54;;;;;;;5.75;5.35;;;;;;;;;;5067337;28;20041;-50
2022/04/08 03:08:20;;;;;;;5.43;5.03;;;;;;;;;;5067798;28;20445;-48
2022/04/08 03:10:46;;;;;;;5.38;4.97;;;;;;;;;;5067837;28;20515;-51
2022/04/08 03:13:12;;;;;;;5.97;5.47;;;;;;;;;;5072989;28;20147;-53
2022/04/08 03:15:39;;;;;;;4.93;4.53;;;;;;;;;;5072786;28;20035;-48
2022/04/08 03:18:05;;;;;;;5.47;5.07;;;;;;;;;;5070157;28;20423;-49
2022/04/08 03:20:30;;;;;;;6.20;5.80;;;;;;;;;;5067692;28;20032;-49
2022/04/08 03:22:55;;;;;;;5.88;5.47;;;;;;;;;;5066600;28;20473;-49
2022/04/08 03:25:20;;;;;;;5.07;4.68;;;;;;;;;;5067547;28;20523;-49
2022/04/08 03:27:46;;;;;;;5.88;5.47;;;;;;;;;;5070347;28;20445;-51
2022/04/08 03:30:11;;;;;;;6.70;6.20;;;;;;;;;;5067659;28;20116;-51
2022/04/08 03:32:37;;;;;;;6.55;6.07;;;;;;;;;;5069487;28;20127;-49
2022/04/08 03:35:02;;;;;;;5.93;5.53;;;;;;;;;;5069162;28;20370;-48
2022/04/08 03:37:29;;;;;;;6.07;5.68;;;;;;;;;;5068849;28;20046;-52
2022/04/08 03:39:55;;;;;;;6.40;5.97;;;;;;;;;;5068253;28;20040;-50
2022/04/08 03:42:21;;;;;;;5.90;5.50;;;;;;;;;;5067495;28;20047;-48
2022/04/08 03:44:47;;;;;;;4.93;4.53;;;;;;;;;;5066301;28;20032;-49
2022/04/08 03:47:12;;;;;;;5.20;4.80;;;;;;;;;;5066184;28;20035;-48
2022/04/08 03:49:38;;;;;;;5.10;4.70;;;;;;;;;;5064912;28;20067;-50
2022/04/08 03:52:05;;;;;;;5.15;4.75;;;;;;;;;;5067646;28;20540;-52
2022/04/08 03:54:30;;;;;;;5.35;4.95;;;;;;;;;;5073583;28;20410;-48
2022/04/08 03:56:56;;;;;;;5.05;4.65;;;;;;;;;;5070424;28;20151;-49
2022/04/08 03:59:22;;;;;;;5.00;4.60;;;;;;;;;;5071187;28;20036;-47
2022/04/08 04:01:49;;;;;;;5.38;4.97;;;;;;;;;;5074078;28;20132;-49
2022/04/08 04:04:15;;;;;;;5.65;5.25;;;;;;;;;;5071433;28;20036;-47
2022/04/08 04:06:41;;;;;;;5.03;4.63;;;;;;;;;;5074301;28;20484;-51
2022/04/08 04:09:07;;;;;;;5.03;4.63;;;;;;;;;;5071124;28;20036;-58
2022/04/08 04:11:33;;;;;;;4.15;3.85;;;;;;;;;;5075432;28;20048;-57
2022/04/08 04:13:59;;;;;;;4.28;3.97;;;;;;;;;;5076765;28;20633;-59
2022/04/08 04:16:26;;;;;;;5.80;5.40;;;;;;;;;;5076725;28;20048;-59
2022/04/08 04:18:51;;;;;;;5.20;4.80;;;;;;;;;;5078539;28;20032;-57
2022/04/08 04:21:17;;;;;;;5.50;5.10;;;;;;;;;;5072278;28;20082;-58
2022/04/08 04:23:42;;;;;;;5.07;4.68;;;;;;;;;;5075985;28;20024;-58
2022/04/08 04:26:07;;;;;;;4.45;4.13;;;;;;;;;;5076463;28;20475;-58
2022/04/08 04:28:33;;;;;;;5.13;4.72;;;;;;;;;;5078022;28;20024;-59
2022/04/08 04:30:59;;;;;;;4.55;4.15;;;;;;;;;;5076780;28;20046;-58
2022/04/08 04:33:25;;;;;;;4.75;4.35;;;;;;;;;;5078519;28;20035;-60
2022/04/08 04:35:51;;;;;;;4.30;4.00;;;;;;;;;;5077756;28;20429;-58
2022/04/08 04:38:16;;;;;;;4.68;4.28;;;;;;;;;;5074168;28;20024;-58
2022/04/08 04:40:42;;;;;;;4.45;4.13;;;;;;;;;;5075013;28;20595;-58
2022/04/08 04:43:07;;;;;;;6.18;4.65;;;;;;;;;;5077683;28;20066;-59
2022/04/08 04:45:34;;;;;;;4.10;3.80;;;;;;;;;;5077980;28;20082;-58
2022/04/08 04:48:00;;;;;;;5.68;5.18;;;;;;;;;;5075857;28;20484;-58
2022/04/08 04:50:25;;;;;;;4.63;4.22;;;;;;;;;;5077249;28;20039;-59
2022/04/08 04:52:51;;;;;;;4.53;4.15;;;;;;;;;;5077902;28;20111;-58
2022/04/08 04:55:16;;;;;;;4.45;4.13;;;;;;;;;;5080044;28;20032;-59
2022/04/08 04:57:41;;;;;;;4.15;3.85;;;;;;;;;;5076059;28;20111;-59
2022/04/08 05:00:09;;;;;;;4.50;4.15;;;;;;;;;;5076631;28;20028;-58
2022/04/08 05:02:35;;;;;;;4.18;3.88;;;;;;;;;;5074467;28;20039;-60
2022/04/08 05:05:00;;;;;;;3.78;3.47;;;;;;;;;;5080246;28;20028;-59
2022/04/08 05:07:26;;;;;;;4.05;3.75;;;;;;;;;;5078350;28;20027;-58
2022/04/08 05:09:51;;;;;;;4.10;3.80;;;;;;;;;;5079877;28;20028;-59
2022/04/08 05:12:17;;;;;;;3.90;3.60;;;;;;;;;;5076941;28;20351;-59
2022/04/08 05:14:42;;;;;;;3.97;3.67;;;;;;;;;;5079195;28;20041;-58
2022/04/08 05:17:08;;;;;;;3.97;3.67;;;;;;;;;;5077129;28;20028;-58
2022/04/08 05:19:33;;;;;;;3.97;3.67;;;;;;;;;;5074988;28;20039;-58
2022/04/08 05:21:58;;;;;;;10.60;4.53;;;;;;;;;;5074554;28;20416;-58
2022/04/08 05:24:24;;;;;;;3.95;3.65;;;;;;;;;;5076909;28;20029;-59
2022/04/08 05:26:49;;;;;;;3.80;3.50;;;;;;;;;;5074294;28;20610;-58
2022/04/08 05:29:14;;;;;;;4.00;3.70;;;;;;;;;;5072831;28;20040;-58
2022/04/08 05:31:40;;;;;;;4.13;3.83;;;;;;;;;;5071764;28;20126;-58
2022/04/08 05:34:05;;;;;;;4.68;4.28;;;;;;;;;;5074789;28;20174;-57
2022/04/08 05:36:31;;;;;;;3.97;3.67;;;;;;;;;;5074743;28;20029;-58
2022/04/08 05:38:56;;;;;;;4.15;3.85;;;;;;;;;;5077689;28;20040;-58
2022/04/08 05:41:22;;;;;;;3.85;3.55;;;;;;;;;;5073913;28;20035;-59
2022/04/08 05:43:48;;;;;;;4.00;3.70;;;;;;;;;;5073603;28;20036;-58
2022/04/08 05:46:14;;;;;;;4.28;3.97;;;;;;;;;;5073312;28;20092;-58
2022/04/08 05:48:40;;;;;;;3.60;3.30;;;;;;;;;;5073521;28;20478;-57
2022/04/08 05:51:06;;;;;;;4.15;3.85;;;;;;;;;;5072886;28;20169;-59
2022/04/08 05:53:31;;;;;;;3.97;3.67;;;;;;;;;;5075632;28;20103;-58
2022/04/08 05:55:58;;;;;;;4.00;3.70;;;;;;;;;;5060437;28;20138;-59
2022/04/08 05:58:24;;;;;;;5.25;4.82;;;;;;;;;;5073981;28;20062;-59
2022/04/08 06:00:50;;;;;;;5.05;4.65;;;;;;;;;;5072881;28;20443;-59
2022/04/08 06:03:15;;;;;;;3.92;3.63;;;;;;;;;;5072594;28;20042;-59
2022/04/08 06:05:40;;;;;;;4.30;4.00;;;;;;;;;;5068183;28;20470;-57
2022/04/08 06:08:06;;;;;;;9.52;5.30;;;;;;;;;;5077507;28;20128;-58
2022/04/08 06:10:32;;;;;;;5.93;4.25;;;;;;;;;;5072083;28;20028;-59
2022/04/08 06:12:57;;;;;;;5.18;4.72;;;;;;;;;;5076554;28;20031;-60
2022/04/08 06:15:24;;;;;;;4.82;4.43;;;;;;;;;;5067608;28;20480;-59
2022/04/08 06:17:50;;;;;;;4.57;4.18;;;;;;;;;;5071671;28;20036;-59
2022/04/08 06:20:17;;;;;;;5.00;4.57;;;;;;;;;;5074584;28;20086;-59
2022/04/08 06:22:43;;;;;;;4.75;4.35;;;;;;;;;;5074612;28;20143;-59
2022/04/08 06:25:11;;;;;;;5.18;4.68;;;;;;;;;;5074893;28;20119;-59
2022/04/08 06:27:37;;;;;;;4.60;4.20;;;;;;;;;;5070943;28;20404;-59
2022/04/08 06:30:09;;;;;;;4.50;4.10;;;;;;;;;;5071898;28;20041;-59
2022/04/08 06:32:35;;;;;;;3.90;3.60;;;;;;;;;;5073529;28;20107;-59
2022/04/08 06:35:00;;;;;;;5.82;4.38;;;;;;;;;;5070621;28;20132;-58
2022/04/08 06:37:29;;;;;;;4.38;4.00;;;;;;;;;;5070806;28;20393;-60
2022/04/08 06:39:55;;;;;;;7.07;4.53;;;;;;;;;;5075795;28;20067;-59
2022/04/08 06:42:21;;;;;;;4.82;4.43;;;;;;;;;;5073531;28;20086;-59
2022/04/08 06:44:46;;;;;;;4.20;3.90;;;;;;;;;;5077630;28;20028;-59
2022/04/08 06:47:12;;;;;;;8.30;5.22;;;;;;;;;;5075146;28;20032;-59
2022/04/08 06:49:43;;;;;;;5.60;5.20;;;;;;;;;;5074385;28;20052;-59
2022/04/08 06:52:09;;;;;;;12.55;4.70;;;;;;;;;;5072437;28;20036;-59
2022/04/08 06:54:35;;;;;;;4.38;4.07;;;;;;;;;;5071981;28;20412;-59
2022/04/08 06:57:00;;;;;;;4.22;3.92;;;;;;;;;;5076223;28;20127;-59
2022/04/08 06:59:26;;;;;;;5.70;5.30;;;;;;;;;;5075590;28;20047;-59
2022/04/08 07:01:51;;;;;;;5.32;4.63;;;;;;;;;;5075776;28;20047;-59
2022/04/08 07:04:16;;;;;;;4.78;4.38;;;;;;;;;;5074974;28;20040;-59
2022/04/08 07:06:42;;;;;;;4.95;4.55;;;;;;;;;;5074839;28;20028;-59
2022/04/08 07:09:07;;;;;;;5.38;4.97;;;;;;;;;;5078436;28;20093;-59
2022/04/08 07:11:32;;;;;;;5.65;5.15;;;;;;;;;;5074406;28;20036;-59
2022/04/08 07:13:58;;;;;;;5.78;5.28;;;;;;;;;;5079645;28;20027;-59
2022/04/08 07:16:23;;;;;;;6.00;5.40;;;;;;;;;;5078294;28;20124;-59
2022/04/08 07:18:49;;;;;;;5.75;5.35;;;;;;;;;;5078722;28;20571;-59
2022/04/08 07:21:14;;;;;;;4.72;4.32;;;;;;;;;;5079663;28;20028;-59
2022/04/08 07:23:39;;;;;;;7.13;5.10;;;;;;;;;;5079530;28;20044;-59
2022/04/08 07:26:05;;;;;;;5.00;4.60;;;;;;;;;;5074789;28;20119;-58
2022/04/08 07:28:32;;;;;;;5.00;4.60;;;;;;;;;;5080450;28;20024;-59
2022/04/08 07:30:57;;;;;;;5.88;5.47;;;;;;;;;;5079785;28;20040;-59
2022/04/08 07:33:23;;;;;;;5.90;5.50;;;;;;;;;;5075975;28;20089;-58
2022/04/08 07:35:48;;;;;;;6.05;5.55;;;;;;;;;;5076042;28;20063;-58
2022/04/08 07:38:14;;;;;;;5.10;4.70;;;;;;;;;;5078388;28;20024;-59
2022/04/08 07:40:39;;;;;;;5.45;5.05;;;;;;;;;;5080835;28;20028;-58
2022/04/08 07:43:05;;;;;;;5.60;5.20;;;;;;;;;;5075521;28;20098;-58
2022/04/08 07:45:30;;;;;;;5.68;5.28;;;;;;;;;;5075128;28;20067;-60
2022/04/08 07:47:58;;;;;;;6.88;6.38;;;;;;;;;;5075503;28;20119;-49
2022/04/08 07:50:25;;;;;;;5.63;5.22;;;;;;;;;;5078050;28;20499;-49
2022/04/08 07:52:50;;;;;;;7.68;6.97;;;;;;;;;;5074651;28;20020;-49
2022/04/08 07:55:20;;;;;;;5.85;5.45;;;;;;;;;;5074229;28;20031;-48
2022/04/08 07:57:50;;;;;;;7.07;6.50;;;;;;;;;;5074542;28;20036;-49
2022/04/08 08:00:19;;;;;;;7.43;6.93;;;;;;;;;;5074930;28;20179;-49
2022/04/08 08:02:45;;;;;;;6.95;6.45;;;;;;;;;;5076707;28;20048;-51
2022/04/08 08:05:11;;;;;;;6.57;6.13;;;;;;;;;;5075375;28;20043;-49
2022/04/08 08:07:50;;;;;;;5.93;5.53;;;;;;;;;;5077539;28;20362;-50
2022/04/08 08:10:22;;;;;;;6.53;6.07;;;;;;;;;;5076221;28;20028;-49
2022/04/08 08:12:49;;;;;;;6.47;5.88;;;;;;;;;;5062561;28;20031;-53
2022/04/08 08:15:15;;;;;;;5.85;5.45;;;;;;;;;;5076369;28;20036;-51
2022/04/08 08:17:41;;;;;;;5.63;5.22;;;;;;;;;;5071329;28;20036;-52
2022/04/08 08:20:08;;;;;;;6.03;5.63;;;;;;;;;;5075683;28;20048;-50
2022/04/08 08:22:34;;;;;;;6.32;5.93;;;;;;;;;;5078221;28;20028;-52
2022/04/08 08:24:59;;;;;;;7.18;6.68;;;;;;;;;;5061418;28;20036;-50
2022/04/08 08:27:25;;;;;;;6.50;6.00;;;;;;;;;;5077706;28;20028;-53
2022/04/08 08:29:50;;;;;;;6.95;6.45;;;;;;;;;;5067483;28;20098;-52
2022/04/08 08:32:15;;;;;;;7.97;7.38;;;;;;;;;;5068311;28;20028;-52
2022/04/08 08:34:42;;;;;;;8.18;7.57;;;;;;;;;;5071910;28;20039;-51
2022/04/08 08:37:07;;;;;;;5.72;5.32;;;;;;;;;;5068516;28;20481;-53
2022/04/08 08:39:33;;;;;;;6.38;5.88;;;;;;;;;;5070454;28;20032;-50
2022/04/08 08:41:58;;;;;;;5.75;5.35;;;;;;;;;;5080626;28;20499;-50
2022/04/08 08:44:24;;;;;;;6.35;5.85;;;;;;;;;;5072354;28;20070;-48
2022/04/08 08:46:52;;;;;;;6.78;6.28;;;;;;;;;;5074656;28;20536;-48
2022/04/08 08:49:19;;;;;;;5.53;5.13;;;;;;;;;;5076977;28;20028;-47
2022/04/08 08:51:58;;;;;;;10.93;6.55;;;;;;;;;;5077937;28;20036;-47
2022/04/08 08:54:23;;;;;;;5.63;5.22;;;;;;;;;;5075776;28;20035;-47
2022/04/08 08:56:49;;;;;;;6.28;5.78;;;;;;;;;;5075341;28;20032;-49
2022/04/08 08:59:15;;;;;;;5.50;5.10;;;;;;;;;;5075682;28;20905;-49
2022/04/08 09:01:41;;;;;;;6.55;6.05;;;;;;;;;;5070238;28;20108;-48
2022/04/08 09:04:06;;;;;;;6.90;6.40;;;;;;;;;;5067614;28;20047;-49
2022/04/08 09:06:41;;;;;;;11.35;6.07;;;;;;;;;;5072868;28;20047;-51
2022/04/08 09:09:07;;;;;;;5.70;5.30;;;;;;;;;;5074427;28;20555;-49
2022/04/08 09:11:32;;;;;;;6.80;6.30;;;;;;;;;;5070426;28;20078;-51
2022/04/08 09:14:03;;;;;;;8.23;7.15;;;;;;;;;;5071638;28;20482;-48
2022/04/08 09:16:29;;;;;;;6.22;5.72;;;;;;;;;;5078972;28;20403;-47
2022/04/08 09:18:56;;;;;;;8.40;7.80;;;;;;;;;;5079133;28;20055;-51
2022/04/08 09:21:25;;;;;;;7.57;7.07;;;;;;;;;;5073143;28;20123;-49
2022/04/08 09:23:51;;;;;;;8.57;7.88;;;;;;;;;;5072538;28;20039;-48
2022/04/08 09:26:17;;;;;;;9.30;8.73;;;;;;;;;;5071677;28;20365;-49
2022/04/08 09:28:42;;;;;;;11.40;10.60;;;;;;;;;;5071405;28;20036;-52
2022/04/08 09:31:18;;;;;;;10.88;10.18;;;;;;;;;;5070609;28;20158;-49
2022/04/08 09:33:53;;;;;;;10.10;9.50;;;;;;;;;;5074034;28;20032;-49
2022/04/08 09:36:30;;;;;;;9.65;8.80;;;;;;;;;;5065513;28;20067;-51
2022/04/08 09:38:56;;;;;;;9.57;8.88;;;;;;;;;;5067349;28;20921;-51
2022/04/08 09:41:36;;;;;;;9.07;8.48;;;;;;;;;;5070029;28;20430;-52
2022/04/08 09:44:02;;;;;;;11.13;10.43;;;;;;;;;;5070272;28;20331;-48
2022/04/08 09:46:27;;;;;;;7.85;7.35;;;;;;;;;;5073443;28;20044;-49
2022/04/08 09:48:53;;;;;;;9.38;8.77;;;;;;;;;;5072520;28;20040;-49
2022/04/08 09:51:20;;;;;;;16.13;10.77;;;;;;;;;;5071294;28;20032;-49
2022/04/08 09:53:54;;;;;;;9.93;9.32;;;;;;;;;;5068588;28;20029;-48
2022/04/08 09:56:22;;;;;;;17.98;16.98;;;;;;;;;;5071053;28;20467;-51
2022/04/08 09:59:11;;;;;;;12.48;11.68;;;;;;;;;;5070511;28;20445;-51
2022/04/08 10:01:37;;;;;;;8.77;8.18;;;;;;;;;;5068761;28;21701;-47
2022/04/08 10:04:04;;;;;;;15.40;8.27;;;;;;;;;;5069444;28;20032;-49
2022/04/08 10:06:30;;;;;;;10.35;9.68;;;;;;;;;;5072259;28;20335;-47
2022/04/08 10:08:56;;;;;;;12.10;11.38;;;;;;;;;;5072244;28;20054;-51
2022/04/08 10:11:30;;;;;;;13.55;12.75;;;;;;;;;;5069741;28;20462;-48
2022/04/08 10:14:17;;;;;;;15.93;15.02;;;;;;;;;;5075626;28;20044;-47
2022/04/08 10:16:42;;;;;;;15.18;14.32;;;;;;;;;;5076023;28;20041;-51
2022/04/08 10:19:08;;;;;;;14.93;14.05;;;;;;;;;;5075312;28;20036;-47
2022/04/08 10:21:40;;;;;;;13.30;12.50;;;;;;;;;;5073747;28;20032;-47
2022/04/08 10:24:13;;;;;;;10.98;10.30;;;;;;;;;;5070623;28;20442;-47
2022/04/08 10:27:09;;;;;;;11.93;11.23;;;;;;;;;;5071731;28;20035;-47
2022/04/08 10:29:35;;;;;;;13.00;12.10;;;;;;;;;;5079603;28;20032;-48
2022/04/08 10:32:12;;;;;;;13.98;13.18;;;;;;;;;;5079456;28;20028;-47
2022/04/08 10:34:38;;;;;;;11.65;10.95;;;;;;;;;;5078983;28;20038;-48
2022/04/08 10:37:17;;;;;;;11.10;10.40;;;;;;;;;;5077738;28;20040;-48
2022/04/08 10:40:02;;;;;;;11.20;10.50;;;;;;;;;;5078873;28;20088;-48
2022/04/08 10:42:29;;;;;;;11.00;10.30;;;;;;;;;;5077806;28;20082;-46
2022/04/08 10:44:55;;;;;;;10.18;9.57;;;;;;;;;;5078627;28;20060;-50
2022/04/08 10:47:21;;;;;;;10.05;9.35;;;;;;;;;;5075563;28;20137;-50
2022/04/08 10:49:51;;;;;;;10.50;9.25;;;;;;;;;;5077615;28;20032;-48
2022/04/08 10:52:18;;;;;;;11.38;10.68;;;;;;;;;;5075650;28;20111;-48
2022/04/08 10:54:44;;;;;;;9.30;8.70;;;;;;;;;;5076910;28;20420;-50
2022/04/08 10:57:09;;;;;;;8.30;7.80;;;;;;;;;;5075373;28;20028;-49
2022/04/08 10:59:35;;;;;;;10.15;9.55;;;;;;;;;;5077238;28;20080;-52
2022/04/08 11:02:05;;;;;;;10.68;9.98;;;;;;;;;;5074231;28;20032;-50
2022/04/08 11:04:31;;;;;;;9.40;8.80;;;;;;;;;;5079014;28;20028;-48
2022/04/08 11:07:03;;;;;;;9.35;8.75;;;;;;;;;;5074328;28;20073;-47
2022/04/08 11:09:30;;;;;;;9.52;8.93;;;;;;;;;;5076586;28;20063;-48
2022/04/08 11:11:55;;;;;;;9.07;8.48;;;;;;;;;;5076478;28;20214;-51
2022/04/08 11:14:21;;;;;;;8.57;8.02;;;;;;;;;;5078721;28;20552;-50
2022/04/08 11:16:49;;;;;;;9.27;8.68;;;;;;;;;;5076216;28;20466;-49
2022/04/08 11:19:14;;;;;;;8.02;7.53;;;;;;;;;;5076792;28;20043;-51
2022/04/08 11:21:41;;;;;;;9.10;8.50;;;;;;;;;;5074973;28;20029;-46
2022/04/08 11:24:08;;;;;;;8.40;7.90;;;;;;;;;;5075188;28;20028;-47
2022/04/08 11:26:48;;;;;;;8.25;7.75;;;;;;;;;;5074961;28;20040;-50
2022/04/08 11:29:22;;;;;;;7.97;7.47;;;;;;;;;;5076094;28;20112;-48
2022/04/08 11:31:52;;;;;;;12.00;11.10;;;;;;;;;;5078270;28;20039;-46
2022/04/08 11:34:18;;;;;;;7.55;7.05;;;;;;;;;;5075506;28;20024;-47
2022/04/08 11:36:44;;;;;;;8.27;7.68;;;;;;;;;;5080166;28;20055;-48
2022/04/08 11:39:19;;;;;;;7.32;6.82;;;;;;;;;;5077782;28;20029;-47
2022/04/08 11:41:50;;;;;;;7.20;6.60;;;;;;;;;;5075070;28;20040;-48
2022/04/08 11:44:16;;;;;;;7.18;6.68;;;;;;;;;;5077960;28;20047;-48
2022/04/08 11:46:41;;;;;;;6.97;6.47;;;;;;;;;;5076015;28;20036;-46
2022/04/08 11:49:11;;;;;;;6.75;6.25;;;;;;;;;;5072738;28;20032;-48
2022/04/08 11:51:36;;;;;;;6.80;6.30;;;;;;;;;;5077379;28;20067;-47
2022/04/08 11:54:03;;;;;;;6.10;5.70;;;;;;;;;;5077389;28;20604;-47
2022/04/08 11:56:28;;;;;;;6.32;5.82;;;;;;;;;;5074354;28;20342;-47
2022/04/08 11:59:01;;;;;;;6.18;5.75;;;;;;;;;;5076128;28;20185;-48
2022/04/08 12:01:34;;;;;;;6.78;6.28;;;;;;;;;;5075128;28;20481;-48
2022/04/08 12:04:08;;;;;;;6.28;5.88;;;;;;;;;;5075012;28;20072;-50
2022/04/08 12:06:44;;;;;;;6.13;5.72;;;;;;;;;;5075037;28;20089;-48
2022/04/08 12:09:11;;;;;;;6.22;5.80;;;;;;;;;;5074583;28;20024;-59
2022/04/08 12:11:38;;;;;;;6.55;6.10;;;;;;;;;;5057438;28;20047;-59
2022/04/08 12:14:06;;;;;;;6.70;6.18;;;;;;;;;;5074179;28;20025;-59
2022/04/08 12:16:31;;;;;;;5.78;5.38;;;;;;;;;;5073841;28;20756;-59
2022/04/08 12:18:57;;;;;;;6.80;6.30;;;;;;;;;;5072125;28;20137;-59
2022/04/08 12:21:27;;;;;;;7.03;6.53;;;;;;;;;;5067365;28;20488;-59
2022/04/08 12:23:54;;;;;;;7.13;6.53;;;;;;;;;;5071732;28;20063;-59
2022/04/08 12:26:27;;;;;;;7.00;6.50;;;;;;;;;;5073773;28;20032;-59
2022/04/08 12:29:07;;;;;;;6.47;5.97;;;;;;;;;;5069816;28;20087;-59
2022/04/08 12:31:33;;;;;;;5.50;5.10;;;;;;;;;;5070921;28;20182;-59
2022/04/08 12:34:01;;;;;;;5.80;5.40;;;;;;;;;;5068755;28;20029;-59
2022/04/08 12:36:27;;;;;;;5.70;5.30;;;;;;;;;;5065947;28;20046;-59
2022/04/08 12:38:52;;;;;;;6.82;6.35;;;;;;;;;;5070325;28;20034;-59
2022/04/08 12:41:17;;;;;;;6.25;5.85;;;;;;;;;;5075401;28;20119;-59
2022/04/08 12:43:43;;;;;;;5.28;4.88;;;;;;;;;;5075323;28;20101;-58
2022/04/08 12:46:08;;;;;;;5.93;5.53;;;;;;;;;;5076206;28;20059;-58
2022/04/08 12:48:34;;;;;;;5.50;5.10;;;;;;;;;;5072110;28;20064;-58
2022/04/08 12:50:59;;;;;;;5.95;5.55;;;;;;;;;;5075229;28;20036;-58
2022/04/08 12:53:29;;;;;;;5.43;5.03;;;;;;;;;;5075305;28;20020;-58
2022/04/08 12:55:57;;;;;;;5.15;4.75;;;;;;;;;;5071861;28;20154;-58
2022/04/08 12:58:23;;;;;;;6.85;6.35;;;;;;;;;;5076152;28;20446;-58
2022/04/08 13:00:48;;;;;;;6.03;5.63;;;;;;;;;;5074488;28;20042;-58
2022/04/08 13:03:14;;;;;;;5.40;5.00;;;;;;;;;;5075939;28;20032;-58
2022/04/08 13:05:40;;;;;;;5.75;5.35;;;;;;;;;;5073221;28;20147;-58
2022/04/08 13:08:05;;;;;;;5.47;5.07;;;;;;;;;;5076891;28;20059;-58
2022/04/08 13:10:30;;;;;;;5.05;4.65;;;;;;;;;;5075975;28;20032;-58
2022/04/08 13:12:56;;;;;;;5.53;5.13;;;;;;;;;;5075037;28;20047;-59
2022/04/08 13:15:21;;;;;;;5.82;5.28;;;;;;;;;;5076387;28;20048;-59
2022/04/08 13:17:47;;;;;;;5.10;4.70;;;;;;;;;;5077905;28;20110;-59
2022/04/08 13:20:16;;;;;;;5.80;5.28;;;;;;;;;;5077655;28;20032;-59
2022/04/08 13:22:41;;;;;;;5.25;4.85;;;;;;;;;;5070481;28;20039;-59
2022/04/08 13:25:07;;;;;;;5.82;5.43;;;;;;;;;;5069221;28;20469;-59
2022/04/08 13:27:32;;;;;;;5.45;5.05;;;;;;;;;;5066980;28;20044;-59
2022/04/08 13:29:58;;;;;;;4.80;4.40;;;;;;;;;;5069147;28;20086;-59
2022/04/08 13:32:23;;;;;;;4.88;4.47;;;;;;;;;;5066835;28;20028;-59
2022/04/08 13:34:49;;;;;;;5.05;4.65;;;;;;;;;;5064730;28;20062;-59
2022/04/08 13:37:15;;;;;;;5.38;4.97;;;;;;;;;;5074796;28;20109;-59
2022/04/08 13:39:41;;;;;;;6.15;5.75;;;;;;;;;;5067849;28;20036;-59
2022/04/08 13:42:07;;;;;;;5.68;5.28;;;;;;;;;;5073638;28;20453;-59
2022/04/08 13:44:33;;;;;;;6.43;6.03;;;;;;;;;;5074952;28;20019;-59
2022/04/08 13:46:59;;;;;;;11.55;5.18;;;;;;;;;;5073746;28;20060;-59
2022/04/08 13:49:25;;;;;;;6.30;5.80;;;;;;;;;;5071918;28;20108;-58
2022/04/08 13:51:51;;;;;;;5.53;5.13;;;;;;;;;;5072733;28;20127;-58
2022/04/08 13:54:17;;;;;;;5.97;5.57;;;;;;;;;;5074193;28;20021;-59
2022/04/08 13:56:43;;;;;;;5.00;4.60;;;;;;;;;;5076887;28;20028;-60
2022/04/08 13:59:08;;;;;;;5.97;5.57;;;;;;;;;;5076287;28;20043;-59
2022/04/08 14:01:34;;;;;;;5.95;5.55;;;;;;;;;;5074011;28;20032;-58
2022/04/08 14:03:59;;;;;;;5.43;5.03;;;;;;;;;;5071953;28;20044;-59
2022/04/08 14:06:26;;;;;;;5.65;5.25;;;;;;;;;;5075624;28;20493;-58
2022/04/08 14:08:52;;;;;;;5.50;5.10;;;;;;;;;;5077923;28;20039;-49
2022/04/08 14:11:18;;;;;;;5.55;5.15;;;;;;;;;;5072913;28;20066;-49
2022/04/08 14:13:43;;;;;;;6.13;5.72;;;;;;;;;;5072961;28;20068;-49
2022/04/08 14:16:08;;;;;;;5.72;5.32;;;;;;;;;;5074555;28;20107;-48
2022/04/08 14:18:34;;;;;;;5.88;5.47;;;;;;;;;;5070840;28;20359;-48
2022/04/08 14:21:00;;;;;;;6.35;5.95;;;;;;;;;;5073814;28;20064;-49
2022/04/08 14:23:26;;;;;;;4.95;4.55;;;;;;;;;;5071965;28;20035;-47
2022/04/08 14:25:51;;;;;;;6.00;5.55;;;;;;;;;;5072399;28;20039;-47
2022/04/08 14:28:18;;;;;;;5.30;4.90;;;;;;;;;;5076052;28;20036;-47
2022/04/08 14:30:44;;;;;;;5.65;5.25;;;;;;;;;;5072600;28;20045;-47
2022/04/08 14:33:09;;;;;;;5.68;5.28;;;;;;;;;;5069081;28;20437;-49
2022/04/08 14:35:34;;;;;;;5.13;4.72;;;;;;;;;;5075207;28;20457;-49